Time;durP1;ratioP1;P1;durP2;ratioP2;P2;SDS_P1;SDS_P2;PMS_P1;PMS_P2;Temp;Humidity;BMP_temperature;BMP_pressure;BME280_temperature;BME280_humidity;BME280_pressure;Samples;Min_cycle;Max_cycle;Signal;HPM_P1;HPM_P2
2023/07/17 00:01:06;;;;;;;4.40;2.70;;;18.20;99.90;;;;;;5045022;28;20232;-58
2023/07/17 00:03:32;;;;;;;4.30;3.00;;;18.20;99.90;;;;;;5038783;28;20181;-60
2023/07/17 00:05:57;;;;;;;6.43;3.27;;;18.30;99.90;;;;;;5037617;28;20235;-58
2023/07/17 00:08:23;;;;;;;3.37;2.73;;;18.30;99.90;;;;;;5036084;28;20175;-58
2023/07/17 00:10:51;;;;;;;6.50;2.93;;;18.30;99.90;;;;;;5043345;28;20179;-59
2023/07/17 00:13:16;;;;;;;8.50;3.10;;;18.40;99.90;;;;;;5034259;28;20467;-58
2023/07/17 00:15:42;;;;;;;4.00;3.13;;;18.40;99.90;;;;;;5042952;28;20446;-59
2023/07/17 00:18:08;;;;;;;8.43;2.80;;;18.40;99.90;;;;;;5045380;28;20175;-58
2023/07/17 00:20:33;;;;;;;3.63;3.10;;;18.40;99.90;;;;;;5043822;28;20179;-58
2023/07/17 00:22:59;;;;;;;5.37;3.47;;;18.40;99.90;;;;;;5042822;28;20774;-59
2023/07/17 00:25:25;;;;;;;9.83;2.97;;;18.40;99.90;;;;;;5043160;28;20215;-56
2023/07/17 00:27:50;;;;;;;4.97;3.40;;;18.40;99.90;;;;;;5044050;28;20179;-58
2023/07/17 00:30:16;;;;;;;5.90;3.50;;;18.30;99.90;;;;;;5027672;28;20667;-59
2023/07/17 00:32:41;;;;;;;4.60;2.70;;;18.30;99.90;;;;;;5042500;28;20191;-59
2023/07/17 00:35:08;;;;;;;10.27;3.33;;;18.20;99.90;;;;;;5035320;28;21076;-59
2023/07/17 00:37:33;;;;;;;4.20;3.10;;;18.20;99.90;;;;;;5038623;28;20171;-59
2023/07/17 00:39:59;;;;;;;7.77;3.30;;;18.10;99.90;;;;;;5034257;28;20956;-59
2023/07/17 00:42:24;;;;;;;8.43;3.43;;;18.10;99.90;;;;;;5042188;28;20205;-58
2023/07/17 00:44:50;;;;;;;9.40;2.83;;;18.10;99.90;;;;;;5027510;28;20193;-57
2023/07/17 00:47:16;;;;;;;6.70;2.90;;;18.10;99.90;;;;;;5032832;28;20253;-58
2023/07/17 00:49:42;;;;;;;5.87;2.73;;;18.00;99.90;;;;;;5036943;28;20188;-58
2023/07/17 00:52:10;;;;;;;4.43;3.63;;;18.00;99.90;;;;;;5035560;28;20580;-58
2023/07/17 00:54:37;;;;;;;5.20;2.63;;;18.00;99.90;;;;;;5039073;28;20452;-58
2023/07/17 00:57:04;;;;;;;3.80;2.83;;;18.00;99.90;;;;;;5038342;28;20468;-59
2023/07/17 00:59:30;;;;;;;3.63;2.77;;;18.00;99.90;;;;;;5037757;28;20987;-59
2023/07/17 01:01:57;;;;;;;7.40;2.90;;;18.00;99.90;;;;;;5037285;28;21204;-59
2023/07/17 01:04:22;;;;;;;9.23;3.70;;;17.90;99.90;;;;;;5042482;28;20914;-59
2023/07/17 01:06:48;;;;;;;5.60;3.10;;;17.90;99.90;;;;;;5038328;28;20460;-57
2023/07/17 01:09:17;;;;;;;5.67;3.27;;;17.90;99.90;;;;;;5035515;28;20172;-59
2023/07/17 01:11:43;;;;;;;5.17;3.10;;;17.90;99.90;;;;;;5042716;28;20184;-59
2023/07/17 01:14:16;;;;;;;3.50;2.83;;;17.90;99.90;;;;;;5037940;28;21383;-59
2023/07/17 01:16:46;;;;;;;4.27;2.90;;;17.90;99.90;;;;;;5035710;28;20183;-59
2023/07/17 01:19:12;;;;;;;8.07;3.83;;;17.90;99.90;;;;;;5033479;28;20426;-59
2023/07/17 01:21:45;;;;;;;4.23;3.10;;;17.90;99.90;;;;;;5041770;28;20905;-59
2023/07/17 01:24:11;;;;;;;18.23;3.20;;;17.90;99.90;;;;;;5035828;28;20203;-59
2023/07/17 01:26:37;;;;;;;12.20;3.20;;;17.90;99.90;;;;;;5036801;28;20952;-58
2023/07/17 01:29:03;;;;;;;3.17;2.87;;;17.90;99.90;;;;;;5038547;28;20176;-57
2023/07/17 01:31:28;;;;;;;6.07;3.60;;;17.90;99.90;;;;;;5039787;28;20171;-59
2023/07/17 01:33:54;;;;;;;8.37;3.40;;;17.90;99.90;;;;;;5040126;28;20973;-59
2023/07/17 01:36:19;;;;;;;16.60;3.70;;;17.90;99.90;;;;;;5031935;28;20238;-58
2023/07/17 01:38:45;;;;;;;4.17;3.00;;;17.90;99.90;;;;;;5033030;28;20430;-59
2023/07/17 01:41:10;;;;;;;5.17;3.13;;;17.90;99.90;;;;;;5035082;28;20180;-59
2023/07/17 01:43:36;;;;;;;6.93;3.53;;;17.90;99.90;;;;;;5033295;28;20194;-58
2023/07/17 01:46:02;;;;;;;5.77;3.00;;;17.90;99.90;;;;;;5028278;28;20838;-58
2023/07/17 01:48:28;;;;;;;6.70;2.90;;;17.90;99.90;;;;;;5034218;28;20175;-58
2023/07/17 01:50:53;;;;;;;7.40;4.50;;;17.90;99.90;;;;;;5037480;28;20240;-59
2023/07/17 01:53:20;;;;;;;4.43;3.00;;;17.90;99.90;;;;;;5033308;28;20167;-58
2023/07/17 01:55:46;;;;;;;6.27;3.20;;;17.90;99.90;;;;;;5042218;28;20217;-59
2023/07/17 01:58:12;;;;;;;6.63;3.03;;;17.90;99.90;;;;;;5040728;28;20437;-59
2023/07/17 02:00:37;;;;;;;8.13;3.50;;;17.90;99.90;;;;;;5035765;28;20214;-58
2023/07/17 02:03:03;;;;;;;4.73;3.23;;;17.90;99.90;;;;;;5031475;28;20171;-58
2023/07/17 02:05:29;;;;;;;4.10;3.20;;;17.90;99.90;;;;;;5041113;28;20230;-59
2023/07/17 02:07:54;;;;;;;5.17;3.53;;;17.90;99.90;;;;;;5040073;28;20232;-59
2023/07/17 02:10:21;;;;;;;5.23;3.33;;;17.90;99.90;;;;;;5035488;28;20245;-59
2023/07/17 02:12:47;;;;;;;6.57;3.40;;;17.90;99.90;;;;;;5037968;28;20191;-60
2023/07/17 02:15:13;;;;;;;5.20;2.90;;;17.80;99.90;;;;;;5036885;28;20457;-60
2023/07/17 02:17:39;;;;;;;5.03;3.37;;;17.80;99.90;;;;;;5039138;28;20229;-60
2023/07/17 02:20:10;;;;;;;5.00;3.50;;;17.80;99.90;;;;;;5036613;28;20433;-59
2023/07/17 02:22:38;;;;;;;4.97;3.80;;;17.80;99.90;;;;;;5038093;28;20421;-59
2023/07/17 02:25:07;;;;;;;4.27;3.47;;;17.70;99.90;;;;;;5041474;28;20488;-59
2023/07/17 02:27:33;;;;;;;6.20;3.57;;;17.70;99.90;;;;;;5036144;28;20436;-57
2023/07/17 02:29:59;;;;;;;5.20;3.20;;;17.70;99.90;;;;;;5043626;28;20425;-59
2023/07/17 02:32:28;;;;;;;5.97;3.53;;;17.80;99.90;;;;;;5033211;28;20421;-59
2023/07/17 02:34:53;;;;;;;7.17;3.40;;;17.80;99.90;;;;;;5034012;28;20199;-59
2023/07/17 02:37:19;;;;;;;5.17;3.63;;;17.80;99.90;;;;;;5038291;28;20429;-59
2023/07/17 02:39:45;;;;;;;6.47;3.60;;;17.70;99.90;;;;;;5034931;28;20275;-58
2023/07/17 02:42:10;;;;;;;16.60;3.87;;;17.70;99.90;;;;;;5044853;28;20195;-59
2023/07/17 02:44:36;;;;;;;5.00;3.70;;;17.80;99.90;;;;;;5033972;28;20203;-58
2023/07/17 02:47:01;;;;;;;7.10;3.30;;;17.80;99.90;;;;;;5040854;28;20309;-58
2023/07/17 02:49:27;;;;;;;11.60;3.87;;;17.80;99.90;;;;;;5038985;28;20262;-58
2023/07/17 02:51:52;;;;;;;8.73;3.57;;;17.80;99.90;;;;;;5043426;28;20183;-59
2023/07/17 02:54:19;;;;;;;6.20;3.73;;;17.80;99.90;;;;;;5037392;28;20706;-57
2023/07/17 02:56:45;;;;;;;4.50;3.67;;;17.90;99.90;;;;;;5044861;28;20603;-59
2023/07/17 02:59:11;;;;;;;7.03;3.43;;;17.90;99.90;;;;;;5044215;28;20429;-59
2023/07/17 03:01:36;;;;;;;4.67;3.30;;;17.90;99.90;;;;;;5040435;28;20268;-59
2023/07/17 03:04:02;;;;;;;4.17;3.33;;;17.90;99.90;;;;;;5032337;28;20180;-58
2023/07/17 03:06:29;;;;;;;13.10;3.73;;;17.90;99.90;;;;;;5045792;28;20219;-59
2023/07/17 03:08:54;;;;;;;6.37;3.17;;;17.90;99.90;;;;;;5036965;28;21057;-57
2023/07/17 03:11:20;;;;;;;5.97;3.50;;;18.00;99.90;;;;;;5041003;28;20509;-58
2023/07/17 03:13:45;;;;;;;10.53;3.10;;;18.00;99.90;;;;;;5044008;28;20179;-58
2023/07/17 03:16:11;;;;;;;6.07;3.80;;;18.00;99.90;;;;;;5040891;28;20570;-58
2023/07/17 03:18:36;;;;;;;5.33;3.90;;;18.00;99.90;;;;;;5038079;28;20281;-58
2023/07/17 03:21:03;;;;;;;7.43;3.50;;;18.00;99.90;;;;;;5045986;28;20186;-58
2023/07/17 03:23:29;;;;;;;6.07;3.20;;;17.90;99.90;;;;;;5040977;28;20171;-58
2023/07/17 03:25:56;;;;;;;5.10;3.27;;;17.90;99.90;;;;;;5041088;28;20461;-59
2023/07/17 03:28:22;;;;;;;7.93;3.10;;;17.90;99.90;;;;;;5035200;28;20230;-59
2023/07/17 03:30:47;;;;;;;5.50;3.73;;;17.80;99.90;;;;;;5021955;28;20438;-59
2023/07/17 03:33:13;;;;;;;10.10;3.60;;;17.80;99.90;;;;;;5038656;28;20175;-59
2023/07/17 03:35:39;;;;;;;6.20;3.50;;;17.80;99.90;;;;;;5033410;28;20199;-59
2023/07/17 03:38:04;;;;;;;6.60;3.50;;;17.80;99.90;;;;;;5033338;28;20204;-58
2023/07/17 03:40:30;;;;;;;6.43;3.47;;;17.80;99.90;;;;;;5036349;28;20183;-59
2023/07/17 03:42:55;;;;;;;5.80;3.73;;;17.80;99.90;;;;;;5038528;28;20207;-59
2023/07/17 03:45:21;;;;;;;6.33;3.57;;;17.80;99.90;;;;;;5033074;28;20672;-59
2023/07/17 03:47:50;;;;;;;6.30;3.47;;;17.80;99.90;;;;;;5038878;28;20183;-59
2023/07/17 03:50:16;;;;;;;7.50;3.70;;;17.80;99.90;;;;;;5040507;28;20189;-59
2023/07/17 03:52:41;;;;;;;7.60;3.57;;;17.80;99.90;;;;;;5036005;28;20442;-59
2023/07/17 03:55:07;;;;;;;3.67;3.30;;;17.80;99.90;;;;;;5036079;28;20218;-59
2023/07/17 03:57:33;;;;;;;6.80;3.77;;;17.80;99.90;;;;;;5029316;28;20175;-59
2023/07/17 03:59:59;;;;;;;6.87;3.70;;;17.80;99.90;;;;;;5013218;28;20185;-59
2023/07/17 04:02:24;;;;;;;13.47;3.80;;;17.70;99.90;;;;;;5038945;28;20191;-59
2023/07/17 04:04:50;;;;;;;9.07;4.10;;;17.70;99.90;;;;;;5026022;28;20190;-58
2023/07/17 04:07:16;;;;;;;9.17;4.37;;;17.70;99.90;;;;;;5022734;28;20168;-58
2023/07/17 04:09:41;;;;;;;5.53;3.67;;;17.70;99.90;;;;;;5033096;28;20591;-60
2023/07/17 04:12:07;;;;;;;7.40;4.43;;;17.70;99.90;;;;;;5040508;28;20678;-59
2023/07/17 04:14:33;;;;;;;7.27;3.80;;;17.70;99.90;;;;;;5036378;28;20214;-58
2023/07/17 04:17:00;;;;;;;6.20;3.70;;;17.70;99.90;;;;;;5038223;28;20203;-60
2023/07/17 04:19:29;;;;;;;6.67;4.13;;;17.70;99.90;;;;;;5038326;28;20434;-58
2023/07/17 04:21:55;;;;;;;4.20;3.20;;;17.80;99.90;;;;;;5031589;28;20469;-59
2023/07/17 04:24:22;;;;;;;7.23;4.00;;;17.80;99.90;;;;;;5034621;28;21077;-59
2023/07/17 04:26:49;;;;;;;7.10;4.10;;;17.80;99.90;;;;;;5033464;28;20557;-59
2023/07/17 04:29:14;;;;;;;5.67;4.00;;;17.80;99.90;;;;;;5032507;28;20462;-58
2023/07/17 04:31:40;;;;;;;6.93;3.70;;;17.80;99.90;;;;;;5034146;28;20968;-59
2023/07/17 04:34:05;;;;;;;6.00;4.30;;;17.80;99.90;;;;;;5038676;28;20254;-58
2023/07/17 04:36:31;;;;;;;7.07;3.80;;;17.80;99.90;;;;;;5032566;28;20191;-58
2023/07/17 04:38:57;;;;;;;7.40;3.90;;;17.80;99.90;;;;;;5026939;28;20194;-59
2023/07/17 04:41:22;;;;;;;9.00;4.10;;;17.80;99.90;;;;;;5031316;28;20184;-59
2023/07/17 04:43:48;;;;;;;6.93;3.93;;;17.80;99.90;;;;;;5040961;28;20186;-58
2023/07/17 04:46:14;;;;;;;6.10;3.67;;;17.80;99.90;;;;;;5041328;28;20210;-58
2023/07/17 04:48:39;;;;;;;7.13;3.77;;;17.80;99.90;;;;;;5042637;28;20624;-58
2023/07/17 04:51:06;;;;;;;5.97;3.80;;;17.80;99.90;;;;;;5040809;28;20175;-59
2023/07/17 04:53:32;;;;;;;8.63;3.30;;;17.80;99.90;;;;;;5038587;28;20259;-58
2023/07/17 04:55:57;;;;;;;10.13;4.50;;;17.80;99.90;;;;;;5036904;28;20565;-58
2023/07/17 04:58:27;;;;;;;5.83;3.53;;;17.80;99.90;;;;;;5033928;28;20684;-59
2023/07/17 05:01:01;;;;;;;6.03;4.00;;;17.80;99.90;;;;;;5026836;28;20266;-59
2023/07/17 05:03:27;;;;;;;6.07;4.03;;;17.90;99.90;;;;;;5039980;28;20425;-59
2023/07/17 05:05:54;;;;;;;8.23;3.90;;;17.90;99.90;;;;;;5046401;28;20461;-58
2023/07/17 05:08:20;;;;;;;8.13;4.20;;;17.90;99.90;;;;;;5038746;28;20548;-58
2023/07/17 05:10:56;;;;;;;5.67;3.80;;;17.90;99.90;;;;;;5027052;28;21091;-59
2023/07/17 05:13:22;;;;;;;5.50;3.90;;;17.90;99.90;;;;;;5041965;28;20832;-58
2023/07/17 05:15:48;;;;;;;7.13;4.03;;;17.90;99.90;;;;;;5039452;28;20445;-58
2023/07/17 05:18:14;;;;;;;8.70;4.33;;;17.90;99.90;;;;;;5038729;28;20432;-59
2023/07/17 05:20:45;;;;;;;5.00;3.57;;;17.90;99.90;;;;;;5038542;28;20438;-59
2023/07/17 05:23:11;;;;;;;8.90;4.10;;;17.90;99.90;;;;;;5036462;28;20171;-59
2023/07/17 05:25:37;;;;;;;8.53;4.17;;;17.90;99.90;;;;;;5030544;28;20458;-58
2023/07/17 05:28:04;;;;;;;5.30;3.63;;;18.00;99.90;;;;;;5026929;28;20432;-59
2023/07/17 05:30:35;;;;;;;6.07;3.93;;;18.00;99.90;;;;;;5030634;28;20186;-59
2023/07/17 05:33:01;;;;;;;8.23;4.53;;;18.00;99.90;;;;;;5028454;28;20585;-58
2023/07/17 05:35:27;;;;;;;8.93;4.67;;;18.00;99.90;;;;;;5031814;28;20473;-58
2023/07/17 05:37:56;;;;;;;8.93;4.63;;;18.00;99.90;;;;;;5040970;28;20183;-59
2023/07/17 05:40:21;;;;;;;5.03;4.00;;;18.10;99.90;;;;;;5034130;28;20688;-59
2023/07/17 05:42:47;;;;;;;6.40;4.30;;;18.10;99.90;;;;;;5035452;28;20484;-56
2023/07/17 05:45:12;;;;;;;9.30;4.57;;;18.20;99.90;;;;;;5030850;28;20196;-56
2023/07/17 05:47:38;;;;;;;12.10;5.07;;;18.20;99.90;;;;;;5027911;28;21219;-56
2023/07/17 05:50:05;;;;;;;8.23;4.30;;;18.20;99.90;;;;;;5023368;28;21826;-58
2023/07/17 05:52:30;;;;;;;8.43;4.77;;;18.20;99.90;;;;;;5026199;28;20176;-59
2023/07/17 05:54:56;;;;;;;9.30;4.27;;;18.30;99.90;;;;;;5033048;28;20462;-59
2023/07/17 05:57:22;;;;;;;6.83;4.10;;;18.30;99.90;;;;;;5039702;28;20193;-58
2023/07/17 05:59:47;;;;;;;6.30;3.67;;;18.40;99.90;;;;;;5024352;28;20241;-61
2023/07/17 06:02:14;;;;;;;8.20;3.53;;;18.50;99.90;;;;;;5029516;28;20179;-61
2023/07/17 06:04:40;;;;;;;8.70;4.40;;;18.70;99.90;;;;;;5032942;28;20615;-61
2023/07/17 06:07:06;;;;;;;7.47;4.17;;;18.80;99.90;;;;;;5034391;28;20470;-60
2023/07/17 06:09:31;;;;;;;9.60;4.40;;;18.90;99.90;;;;;;5043438;28;20425;-61
2023/07/17 06:11:57;;;;;;;7.57;3.83;;;19.00;99.90;;;;;;5042175;28;20220;-60
2023/07/17 06:14:23;;;;;;;5.80;4.13;;;19.10;99.90;;;;;;5045932;28;20210;-60
2023/07/17 06:16:48;;;;;;;9.83;4.10;;;19.10;99.90;;;;;;5041580;28;20955;-61
2023/07/17 06:19:14;;;;;;;7.47;4.57;;;19.20;97.60;;;;;;5040548;28;20190;-60
2023/07/17 06:21:40;;;;;;;9.73;3.80;;;19.20;95.50;;;;;;5045529;28;20181;-60
2023/07/17 06:24:07;;;;;;;6.63;4.03;;;19.20;91.00;;;;;;5038205;28;20662;-59
2023/07/17 06:26:33;;;;;;;8.70;4.00;;;19.30;91.90;;;;;;5038040;28;20231;-61
2023/07/17 06:28:59;;;;;;;11.57;5.40;;;19.30;91.80;;;;;;5040843;28;20435;-60
2023/07/17 06:31:25;;;;;;;8.47;4.40;;;19.30;92.20;;;;;;5044438;28;20433;-59
2023/07/17 06:33:51;;;;;;;10.90;4.30;;;19.20;89.50;;;;;;5037562;28;20254;-60
2023/07/17 06:36:16;;;;;;;7.23;4.40;;;19.20;90.60;;;;;;5047336;28;20195;-61
2023/07/17 06:38:42;;;;;;;7.20;4.20;;;19.30;90.00;;;;;;5037203;28;20226;-61
2023/07/17 06:41:07;;;;;;;9.50;4.63;;;19.30;89.30;;;;;;5048485;28;20175;-61
2023/07/17 06:43:33;;;;;;;8.60;3.97;;;19.30;87.50;;;;;;5038515;28;20198;-60
2023/07/17 06:45:59;;;;;;;9.40;4.30;;;19.40;87.50;;;;;;5037772;28;20218;-61
2023/07/17 06:48:25;;;;;;;12.00;4.50;;;19.40;86.00;;;;;;5039589;28;20243;-60
2023/07/17 06:50:51;;;;;;;9.10;4.50;;;19.50;86.60;;;;;;5035450;28;21016;-60
2023/07/17 06:53:16;;;;;;;7.80;4.07;;;19.50;86.10;;;;;;5046603;28;20202;-60
2023/07/17 06:55:42;;;;;;;15.30;4.43;;;19.50;83.00;;;;;;5041772;28;20209;-60
2023/07/17 06:58:08;;;;;;;7.20;4.03;;;19.60;82.80;;;;;;5034686;28;20272;-62
2023/07/17 07:00:33;;;;;;;7.50;3.90;;;19.60;84.10;;;;;;5041765;28;20204;-61
2023/07/17 07:02:59;;;;;;;8.03;3.60;;;19.70;80.90;;;;;;5047060;28;20229;-60
2023/07/17 07:05:25;;;;;;;7.87;3.43;;;19.80;80.90;;;;;;5043839;28;20218;-64
2023/07/17 07:07:50;;;;;;;4.73;3.27;;;19.90;78.80;;;;;;5042920;28;20184;-61
2023/07/17 07:10:16;;;;;;;8.27;4.23;;;19.90;76.10;;;;;;5046187;28;20175;-59
2023/07/17 07:12:42;;;;;;;7.90;4.43;;;20.00;75.00;;;;;;5040615;28;20191;-60
2023/07/17 07:15:09;;;;;;;9.90;3.97;;;20.10;72.60;;;;;;5036979;28;20202;-60
2023/07/17 07:17:34;;;;;;;6.87;3.97;;;20.10;73.20;;;;;;5041443;28;20207;-61
2023/07/17 07:20:00;;;;;;;12.80;4.30;;;20.10;71.20;;;;;;5033288;28;20885;-61
2023/07/17 07:22:26;;;;;;;9.90;4.20;;;20.00;70.00;;;;;;5033348;28;20263;-61
2023/07/17 07:24:51;;;;;;;6.27;4.00;;;20.20;71.60;;;;;;5038345;28;20681;-61
2023/07/17 07:27:17;;;;;;;6.40;4.07;;;20.30;71.90;;;;;;5036177;28;20729;-59
2023/07/17 07:29:42;;;;;;;11.23;4.57;;;20.30;67.20;;;;;;5038700;28;20176;-61
2023/07/17 07:32:08;;;;;;;7.60;4.50;;;20.40;66.90;;;;;;5038439;28;20179;-60
2023/07/17 07:34:34;;;;;;;7.77;3.97;;;20.50;66.80;;;;;;5037342;28;20178;-60
2023/07/17 07:37:00;;;;;;;6.70;4.00;;;20.60;64.40;;;;;;5040530;28;20217;-60
2023/07/17 07:39:25;;;;;;;12.03;4.67;;;20.70;66.30;;;;;;5036248;28;20199;-59
2023/07/17 07:41:51;;;;;;;10.30;4.07;;;20.70;63.10;;;;;;5039668;28;20568;-60
2023/07/17 07:44:16;;;;;;;9.80;4.20;;;20.80;63.20;;;;;;5039866;28;20660;-59
2023/07/17 07:46:43;;;;;;;7.33;4.53;;;20.80;63.20;;;;;;5039958;28;20218;-60
2023/07/17 07:49:08;;;;;;;7.23;4.40;;;20.80;63.60;;;;;;5035153;28;20292;-59
2023/07/17 07:51:34;;;;;;;5.47;3.67;;;20.80;65.10;;;;;;5041353;28;20872;-58
2023/07/17 07:54:00;;;;;;;11.03;4.00;;;20.90;64.50;;;;;;5040719;28;20190;-58
2023/07/17 07:56:25;;;;;;;10.90;4.20;;;20.90;63.70;;;;;;5036667;28;20268;-59
2023/07/17 07:58:51;;;;;;;6.77;4.53;;;20.90;62.70;;;;;;5038499;28;20195;-59
2023/07/17 08:01:16;;;;;;;10.17;4.77;;;21.00;61.90;;;;;;5034074;28;20179;-58
2023/07/17 08:03:42;;;;;;;15.07;4.90;;;21.10;60.20;;;;;;5038023;28;20213;-59
2023/07/17 08:06:08;;;;;;;7.50;4.50;;;21.30;61.70;;;;;;5035952;28;20221;-59
2023/07/17 08:08:33;;;;;;;9.10;5.20;;;21.40;61.30;;;;;;5037777;28;20302;-58
2023/07/17 08:10:59;;;;;;;8.47;4.57;;;21.50;61.50;;;;;;5037987;28;20175;-60
2023/07/17 08:13:24;;;;;;;11.27;4.23;;;21.60;61.00;;;;;;5035698;28;20190;-58
2023/07/17 08:15:50;;;;;;;9.43;5.13;;;21.70;58.20;;;;;;5034054;28;20217;-57
2023/07/17 08:18:18;;;;;;;11.20;4.43;;;21.80;56.70;;;;;;5036159;28;20174;-57
2023/07/17 08:20:44;;;;;;;9.73;4.83;;;21.90;55.70;;;;;;5033406;28;20187;-57
2023/07/17 08:23:10;;;;;;;8.27;4.80;;;22.00;54.50;;;;;;5033910;28;20430;-58
2023/07/17 08:25:35;;;;;;;12.33;4.60;;;22.00;53.10;;;;;;5037190;28;20268;-57
2023/07/17 08:28:01;;;;;;;6.27;3.80;;;22.00;52.40;;;;;;5037250;28;20187;-58
2023/07/17 08:30:26;;;;;;;8.10;4.67;;;22.10;52.10;;;;;;5037162;28;20171;-58
2023/07/17 08:32:53;;;;;;;5.90;4.10;;;22.20;50.80;;;;;;5036621;28;20191;-60
2023/07/17 08:35:18;;;;;;;6.63;4.03;;;22.40;49.30;;;;;;5038482;28;20203;-57
2023/07/17 08:37:44;;;;;;;5.13;3.90;;;22.40;49.80;;;;;;5032759;28;20470;-56
2023/07/17 08:40:10;;;;;;;5.57;3.97;;;22.40;50.40;;;;;;5030620;28;20840;-57
2023/07/17 08:42:38;;;;;;;6.93;3.83;;;22.40;50.50;;;;;;5034871;28;20544;-58
2023/07/17 08:45:04;;;;;;;14.57;4.20;;;22.40;50.50;;;;;;5031638;28;20476;-58
2023/07/17 08:47:31;;;;;;;13.90;5.10;;;22.50;50.90;;;;;;5034513;28;20516;-57
2023/07/17 08:49:58;;;;;;;12.37;4.10;;;22.60;50.70;;;;;;5028572;28;21240;-59
2023/07/17 08:52:27;;;;;;;5.43;3.80;;;22.70;51.40;;;;;;5036423;28;20982;-58
2023/07/17 08:54:52;;;;;;;9.53;4.80;;;22.80;50.30;;;;;;5023494;28;20457;-60
2023/07/17 08:57:18;;;;;;;6.70;4.17;;;22.80;50.10;;;;;;5037599;28;20442;-56
2023/07/17 08:59:45;;;;;;;9.33;4.43;;;22.70;50.20;;;;;;5033285;28;20283;-59
2023/07/17 09:02:11;;;;;;;11.40;4.23;;;22.60;50.70;;;;;;5031466;28;20426;-58
2023/07/17 09:04:36;;;;;;;7.53;4.20;;;22.50;50.30;;;;;;5027819;28;20441;-60
2023/07/17 09:07:03;;;;;;;6.93;4.00;;;22.40;50.50;;;;;;5028293;28;20199;-61
2023/07/17 09:09:28;;;;;;;12.60;4.57;;;22.40;51.00;;;;;;5032669;28;20183;-56
2023/07/17 09:12:11;;;;;;;9.50;4.17;;;22.40;51.80;;;;;;5022326;28;20527;-54
2023/07/17 09:14:38;;;;;;;12.43;4.87;;;22.40;51.20;;;;;;5030376;28;20276;-51
2023/07/17 09:17:07;;;;;;;8.83;4.70;;;22.40;51.00;;;;;;5036086;28;20755;-57
2023/07/17 09:19:34;;;;;;;4.73;3.70;;;22.40;50.70;;;;;;5034881;28;20475;-58
2023/07/17 09:22:06;;;;;;;8.93;4.90;;;22.30;49.80;;;;;;5028341;28;20422;-53
2023/07/17 09:24:36;;;;;;;7.63;4.20;;;22.30;50.80;;;;;;5039532;28;20433;-56
2023/07/17 09:27:07;;;;;;;7.20;4.10;;;22.20;50.50;;;;;;5040378;28;20585;-57
2023/07/17 09:29:33;;;;;;;9.07;4.90;;;22.20;50.30;;;;;;5033082;28;20491;-56
2023/07/17 09:32:18;;;;;;;6.67;4.43;;;22.10;51.10;;;;;;5040577;28;20428;-56
2023/07/17 09:34:55;;;;;;;7.33;4.20;;;22.10;51.70;;;;;;5035682;28;20653;-55
2023/07/17 09:37:20;;;;;;;6.93;4.97;;;22.10;51.60;;;;;;5037554;28;20442;-56
2023/07/17 09:39:51;;;;;;;8.07;4.50;;;22.10;51.80;;;;;;5045281;28;20455;-57
2023/07/17 09:42:24;;;;;;;5.23;4.07;;;22.20;50.80;;;;;;5035180;28;20612;-55
2023/07/17 09:44:51;;;;;;;11.47;4.40;;;22.20;51.00;;;;;;5037496;28;20996;-56
2023/07/17 09:47:20;;;;;;;8.00;4.10;;;22.20;50.80;;;;;;5035672;28;20503;-56
2023/07/17 09:49:50;;;;;;;6.30;4.20;;;22.20;51.20;;;;;;5037683;28;24376;-56
2023/07/17 09:52:16;;;;;;;7.73;4.43;;;22.20;51.10;;;;;;5034190;28;20445;-58
2023/07/17 09:54:45;;;;;;;8.77;4.20;;;22.10;51.00;;;;;;5032122;28;20500;-55
2023/07/17 09:57:24;;;;;;;9.13;4.80;;;22.20;51.00;;;;;;5032516;28;20198;-62
2023/07/17 09:59:50;;;;;;;4.77;4.00;;;22.40;50.90;;;;;;5023875;28;20441;-59
2023/07/17 10:02:19;;;;;;;6.77;5.30;;;22.70;51.00;;;;;;5024956;28;20447;-60
2023/07/17 10:04:52;;;;;;;6.90;4.70;;;22.90;50.90;;;;;;5019478;28;20839;-61
2023/07/17 10:07:19;;;;;;;6.60;4.30;;;23.30;51.00;;;;;;5029326;28;20462;-61
2023/07/17 10:09:48;;;;;;;6.40;4.17;;;23.60;50.60;;;;;;5031474;28;20521;-61
2023/07/17 10:12:15;;;;;;;7.50;4.33;;;23.90;48.90;;;;;;5033486;28;20477;-61
2023/07/17 10:14:42;;;;;;;4.90;4.03;;;24.10;48.20;;;;;;5029799;28;20515;-59
2023/07/17 10:17:40;;;;;;;7.77;4.43;;;24.10;47.30;;;;;;5035976;28;20426;-61
2023/07/17 10:20:07;;;;;;;6.33;3.97;;;24.00;47.20;;;;;;5013510;28;20500;-58
2023/07/17 10:22:38;;;;;;;8.07;4.90;;;24.10;48.00;;;;;;5032488;28;22441;-59
2023/07/17 10:25:18;;;;;;;6.47;4.07;;;24.30;48.20;;;;;;5033409;28;20483;-61
2023/07/17 10:27:54;;;;;;;6.90;4.17;;;24.20;47.40;;;;;;5049641;28;20429;-59
2023/07/17 10:30:37;;;;;;;6.13;3.63;;;24.20;48.20;;;;;;5044085;28;20453;-59
2023/07/17 10:33:06;;;;;;;7.53;3.80;;;24.20;49.20;;;;;;5039481;28;20514;-62
2023/07/17 10:36:00;;;;;;;7.20;4.40;;;24.30;48.70;;;;;;5032513;28;20491;-60
2023/07/17 10:38:28;;;;;;;5.83;4.43;;;24.00;48.00;;;;;;5037638;28;20448;-56
2023/07/17 10:41:00;;;;;;;9.33;4.97;;;23.90;49.00;;;;;;5034669;28;20811;-58
2023/07/17 10:43:26;;;;;;;6.03;3.90;;;23.80;49.30;;;;;;5030276;28;20473;-60
2023/07/17 10:45:52;;;;;;;6.20;4.30;;;23.70;49.30;;;;;;5036226;28;20473;-57
2023/07/17 10:48:18;;;;;;;7.73;4.57;;;23.80;49.80;;;;;;5035441;28;20175;-57
2023/07/17 10:51:02;;;;;;;10.23;4.80;;;23.80;50.30;;;;;;5028307;28;20176;-58
2023/07/17 10:53:28;;;;;;;7.10;4.13;;;23.80;50.70;;;;;;5037057;28;20171;-59
2023/07/17 10:55:54;;;;;;;5.77;3.90;;;23.80;50.00;;;;;;5035112;28;20484;-60
2023/07/17 10:58:20;;;;;;;5.10;4.10;;;23.80;49.60;;;;;;5040181;28;20179;-59
2023/07/17 11:00:47;;;;;;;6.90;4.20;;;23.70;50.20;;;;;;5039505;28;20553;-58
2023/07/17 11:03:14;;;;;;;5.97;4.10;;;23.60;49.80;;;;;;5034258;28;20433;-58
2023/07/17 11:05:41;;;;;;;9.33;4.27;;;23.50;50.20;;;;;;5034662;28;20481;-60
2023/07/17 11:08:08;;;;;;;5.57;4.20;;;23.50;50.30;;;;;;5032969;28;20498;-59
2023/07/17 11:10:35;;;;;;;6.37;4.30;;;23.40;50.80;;;;;;5036211;28;20422;-61
2023/07/17 11:13:04;;;;;;;8.33;4.67;;;23.30;51.70;;;;;;5038770;28;20429;-60
2023/07/17 11:15:34;;;;;;;7.60;4.70;;;23.30;53.10;;;;;;5046645;28;20488;-59
2023/07/17 11:18:01;;;;;;;8.20;4.80;;;23.30;53.30;;;;;;5044514;28;20442;-61
2023/07/17 11:20:28;;;;;;;5.83;4.87;;;23.20;53.20;;;;;;5033464;28;20448;-58
2023/07/17 11:22:54;;;;;;;6.90;4.37;;;23.30;54.20;;;;;;5024208;28;20489;-61
2023/07/17 11:25:20;;;;;;;11.70;4.97;;;23.30;54.70;;;;;;5033763;28;20512;-60
2023/07/17 11:27:46;;;;;;;8.80;4.70;;;23.50;55.60;;;;;;5033340;28;20183;-60
2023/07/17 11:30:24;;;;;;;9.70;4.77;;;23.70;55.20;;;;;;5033268;28;20185;-60
2023/07/17 11:33:01;;;;;;;10.03;5.47;;;23.90;53.20;;;;;;5035008;28;20433;-59
2023/07/17 11:35:37;;;;;;;6.13;4.67;;;23.90;53.90;;;;;;5035306;28;20472;-60
2023/07/17 11:38:06;;;;;;;7.40;4.87;;;24.00;55.00;;;;;;5031908;28;21072;-61
2023/07/17 11:40:31;;;;;;;9.00;4.47;;;24.00;55.50;;;;;;5034787;28;20448;-59
2023/07/17 11:43:06;;;;;;;14.57;5.30;;;24.10;55.80;;;;;;5030184;28;20437;-60
2023/07/17 11:45:31;;;;;;;11.70;4.30;;;24.20;56.70;;;;;;5034737;28;20288;-59
2023/07/17 11:47:57;;;;;;;8.70;4.80;;;24.50;56.00;;;;;;5032506;28;20530;-60
2023/07/17 11:50:25;;;;;;;7.03;4.90;;;24.70;55.40;;;;;;5027536;28;20243;-61
2023/07/17 11:53:16;;;;;;;12.50;4.80;;;24.90;54.80;;;;;;5034546;28;20266;-59
2023/07/17 11:55:43;;;;;;;5.80;4.47;;;25.20;52.60;;;;;;5024516;28;21052;-59
2023/07/17 11:58:20;;;;;;;7.33;4.90;;;25.40;51.40;;;;;;5030316;28;20469;-59
2023/07/17 12:00:48;;;;;;;9.43;5.00;;;25.80;52.80;;;;;;5032524;28;20424;-59
2023/07/17 12:03:13;;;;;;;9.00;4.57;;;26.10;48.50;;;;;;5032369;28;20426;-60
2023/07/17 12:05:40;;;;;;;7.10;4.60;;;26.40;49.00;;;;;;5035419;28;20468;-58
2023/07/17 12:08:06;;;;;;;12.03;4.90;;;26.60;49.40;;;;;;5031875;28;20174;-60
2023/07/17 12:10:33;;;;;;;9.07;4.63;;;26.90;48.60;;;;;;5033246;28;21218;-58
2023/07/17 12:12:59;;;;;;;6.43;3.90;;;27.10;47.10;;;;;;5031657;28;20445;-59
2023/07/17 12:15:26;;;;;;;9.67;4.90;;;27.30;46.10;;;;;;5033600;28;20456;-60
2023/07/17 12:17:52;;;;;;;8.20;4.50;;;27.30;46.20;;;;;;5033025;28;20484;-58
2023/07/17 12:20:20;;;;;;;7.47;4.07;;;27.50;46.60;;;;;;5030099;28;20172;-56
2023/07/17 12:22:51;;;;;;;10.50;4.40;;;27.60;44.20;;;;;;5024634;28;20203;-59
2023/07/17 12:25:17;;;;;;;9.00;5.10;;;27.50;44.90;;;;;;5029916;28;20237;-59
2023/07/17 12:27:43;;;;;;;8.17;4.27;;;27.60;45.80;;;;;;5023163;28;20174;-57
2023/07/17 12:30:10;;;;;;;6.73;4.43;;;27.50;44.50;;;;;;5029059;28;20236;-59
2023/07/17 12:32:36;;;;;;;9.43;4.80;;;27.50;45.70;;;;;;5031304;28;20179;-59
2023/07/17 12:35:02;;;;;;;9.37;4.97;;;27.50;45.60;;;;;;5035599;28;20635;-59
2023/07/17 12:37:31;;;;;;;8.40;4.77;;;27.50;45.80;;;;;;5036351;28;20179;-59
2023/07/17 12:39:57;;;;;;;10.50;4.20;;;27.20;45.70;;;;;;5029583;28;20189;-59
2023/07/17 12:42:23;;;;;;;6.97;3.70;;;26.90;45.90;;;;;;5033569;28;20970;-59
2023/07/17 12:44:49;;;;;;;7.50;4.63;;;26.50;45.50;;;;;;5017180;28;20212;-58